Time;durP1;ratioP1;P1;durP2;ratioP2;P2;SDS_P1;SDS_P2;PMS_P1;PMS_P2;Temp;Humidity;BMP_temperature;BMP_pressure;BME280_temperature;BME280_humidity;BME280_pressure;Samples;Min_cycle;Max_cycle;Signal;HPM_P1;HPM_P2
2023/07/08 00:00:53;;;;;;;0.20;0.20;;;;;;;;;;5053504;28;20191;-72
2023/07/08 00:03:19;;;;;;;0.28;0.28;;;;;;;;;;5071609;28;20056;-72
2023/07/08 00:05:45;;;;;;;1.55;1.20;;;;;;;;;;5071045;28;20059;-73
2023/07/08 00:08:14;;;;;;;0.22;0.22;;;;;;;;;;5070434;28;20180;-73
2023/07/08 00:10:40;;;;;;;0.30;0.30;;;;;;;;;;5070083;28;20476;-73
2023/07/08 00:13:05;;;;;;;0.25;0.25;;;;;;;;;;5070090;28;20040;-73
2023/07/08 00:15:35;;;;;;;0.20;0.20;;;;;;;;;;5070003;28;20053;-72
2023/07/08 00:18:00;;;;;;;0.20;0.20;;;;;;;;;;5070654;28;20320;-73
2023/07/08 00:20:29;;;;;;;0.20;0.20;;;;;;;;;;5069825;28;20476;-73
2023/07/08 00:22:54;;;;;;;0.35;0.35;;;;;;;;;;5079065;28;20434;-73
2023/07/08 00:25:20;;;;;;;0.20;0.20;;;;;;;;;;5089982;28;20028;-73
2023/07/08 00:27:47;;;;;;;0.20;0.20;;;;;;;;;;5088614;28;20569;-73
2023/07/08 00:30:24;;;;;;;0.20;0.20;;;;;;;;;;5071940;28;20024;-72
2023/07/08 00:32:55;;;;;;;3.92;3.72;;;;;;;;;;5071347;28;20407;-72
2023/07/08 00:35:22;;;;;;;0.20;0.20;;;;;;;;;;5090104;28;20039;-73
2023/07/08 00:37:48;;;;;;;0.30;0.30;;;;;;;;;;5089644;28;20054;-72
2023/07/08 00:40:17;;;;;;;0.30;0.30;;;;;;;;;;5072170;28;20433;-72
2023/07/08 00:42:44;;;;;;;0.30;0.30;;;;;;;;;;5071106;28;20398;-73
2023/07/08 00:45:15;;;;;;;0.30;0.30;;;;;;;;;;5071746;28;20114;-72
2023/07/08 00:47:41;;;;;;;0.30;0.30;;;;;;;;;;5090013;28;20039;-72
2023/07/08 00:50:08;;;;;;;0.30;0.30;;;;;;;;;;5089625;28;20475;-73
2023/07/08 00:52:34;;;;;;;0.20;0.20;;;;;;;;;;5089528;28;20028;-73
2023/07/08 00:55:02;;;;;;;0.32;0.30;;;;;;;;;;5075117;28;20028;-73
2023/07/08 00:57:29;;;;;;;0.10;0.10;;;;;;;;;;5092400;28;20058;-72
2023/07/08 00:59:54;;;;;;;0.20;0.20;;;;;;;;;;5075434;28;20479;-72
2023/07/08 01:02:21;;;;;;;0.20;0.20;;;;;;;;;;5075191;28;20032;-72
2023/07/08 01:04:46;;;;;;;0.10;0.10;;;;;;;;;;5093274;28;20111;-72
2023/07/08 01:07:12;;;;;;;0.22;0.22;;;;;;;;;;5074940;28;20119;-72
2023/07/08 01:09:40;;;;;;;0.20;0.20;;;;;;;;;;5093573;28;20020;-72
2023/07/08 01:12:07;;;;;;;0.10;0.10;;;;;;;;;;5074239;28;20032;-72
2023/07/08 01:14:34;;;;;;;0.20;0.20;;;;;;;;;;5055019;28;20033;-72
2023/07/08 01:16:59;;;;;;;0.20;0.20;;;;;;;;;;5072947;28;20037;-74
2023/07/08 01:19:32;;;;;;;2.20;1.92;;;;;;;;;;5073045;28;20390;-74
2023/07/08 01:22:01;;;;;;;2.53;1.80;;;;;;;;;;5038623;28;20036;-72
2023/07/08 01:24:28;;;;;;;0.20;0.20;;;;;;;;;;5073056;28;20032;-72
2023/07/08 01:26:54;;;;;;;0.20;0.20;;;;;;;;;;5072947;28;20025;-72
2023/07/08 01:29:20;;;;;;;0.20;0.20;;;;;;;;;;5072853;28;20027;-72
2023/07/08 01:31:48;;;;;;;0.30;0.30;;;;;;;;;;5054640;28;20025;-72
2023/07/08 01:34:17;;;;;;;0.30;0.30;;;;;;;;;;5072584;28;20103;-72
2023/07/08 01:36:51;;;;;;;0.20;0.20;;;;;;;;;;5072917;28;20039;-71
2023/07/08 01:39:19;;;;;;;1.17;0.47;;;;;;;;;;5038254;28;20047;-72
2023/07/08 01:41:44;;;;;;;0.22;0.22;;;;;;;;;;5054728;28;20452;-72
2023/07/08 01:44:29;;;;;;;0.20;0.20;;;;;;;;;;5074206;28;20118;-72
2023/07/08 01:46:56;;;;;;;0.13;0.13;;;;;;;;;;5092597;28;20387;-72
2023/07/08 01:49:22;;;;;;;0.30;0.30;;;;;;;;;;5091885;28;20032;-72
2023/07/08 01:51:49;;;;;;;0.20;0.20;;;;;;;;;;5092645;28;20494;-72
2023/07/08 01:54:14;;;;;;;0.20;0.20;;;;;;;;;;5074589;28;20462;-72
2023/07/08 01:56:40;;;;;;;0.20;0.20;;;;;;;;;;5092718;28;20063;-72
2023/07/08 01:59:05;;;;;;;0.20;0.20;;;;;;;;;;5075023;28;20099;-72
2023/07/08 02:01:31;;;;;;;0.20;0.20;;;;;;;;;;5075075;28;20032;-72
2023/07/08 02:03:56;;;;;;;0.20;0.20;;;;;;;;;;5075466;28;20113;-72
2023/07/08 02:06:21;;;;;;;0.25;0.25;;;;;;;;;;5074728;28;20039;-72
2023/07/08 02:08:47;;;;;;;0.20;0.20;;;;;;;;;;5088714;28;20472;-72
2023/07/08 02:11:12;;;;;;;0.20;0.20;;;;;;;;;;5073091;28;20119;-72
2023/07/08 02:13:37;;;;;;;0.20;0.20;;;;;;;;;;5074455;28;20088;-73
2023/07/08 02:16:03;;;;;;;0.20;0.20;;;;;;;;;;5092373;28;20055;-73
2023/07/08 02:18:32;;;;;;;0.20;0.20;;;;;;;;;;5092936;28;20036;-72
2023/07/08 02:20:57;;;;;;;0.20;0.20;;;;;;;;;;5096110;28;20031;-72
2023/07/08 02:23:23;;;;;;;0.20;0.20;;;;;;;;;;5095867;28;20395;-72
2023/07/08 02:25:52;;;;;;;0.20;0.20;;;;;;;;;;5095795;28;20502;-72
2023/07/08 02:28:18;;;;;;;0.50;0.50;;;;;;;;;;5076902;28;20486;-72
2023/07/08 02:30:43;;;;;;;0.20;0.20;;;;;;;;;;5077600;28;20140;-72
2023/07/08 02:33:09;;;;;;;0.20;0.20;;;;;;;;;;5077735;28;20517;-72
2023/07/08 02:35:35;;;;;;;0.20;0.20;;;;;;;;;;5060814;28;20063;-72
2023/07/08 02:38:00;;;;;;;0.20;0.20;;;;;;;;;;5095933;28;20063;-73
2023/07/08 02:40:26;;;;;;;0.20;0.20;;;;;;;;;;5077633;28;20028;-73
2023/07/08 02:42:51;;;;;;;0.38;0.38;;;;;;;;;;5082365;28;20124;-72
2023/07/08 02:45:17;;;;;;;0.30;0.30;;;;;;;;;;5057407;28;20035;-73
2023/07/08 02:47:42;;;;;;;0.30;0.30;;;;;;;;;;5075164;28;20032;-71
2023/07/08 02:50:09;;;;;;;0.40;0.40;;;;;;;;;;5075532;28;20025;-71
2023/07/08 02:52:34;;;;;;;0.22;0.22;;;;;;;;;;5057363;28;20090;-71
2023/07/08 02:55:00;;;;;;;0.20;0.20;;;;;;;;;;5075353;28;20032;-71
2023/07/08 02:57:25;;;;;;;0.25;0.25;;;;;;;;;;5075585;28;20125;-71
2023/07/08 02:59:51;;;;;;;0.43;0.43;;;;;;;;;;5057160;28;20028;-72
2023/07/08 03:02:16;;;;;;;0.20;0.20;;;;;;;;;;5056627;28;20551;-72
2023/07/08 03:04:41;;;;;;;0.50;0.50;;;;;;;;;;5091266;28;20039;-71
2023/07/08 03:07:11;;;;;;;0.50;0.50;;;;;;;;;;5091299;28;20143;-71
2023/07/08 03:09:39;;;;;;;2.65;2.55;;;;;;;;;;5091366;28;20120;-71
2023/07/08 03:12:09;;;;;;;0.20;0.20;;;;;;;;;;5073557;28;20028;-71
2023/07/08 03:14:34;;;;;;;0.30;0.30;;;;;;;;;;5090621;28;20543;-72
2023/07/08 03:16:59;;;;;;;0.55;0.38;;;;;;;;;;5089718;28;20168;-72
2023/07/08 03:19:25;;;;;;;0.43;0.43;;;;;;;;;;5071664;28;20039;-72
2023/07/08 03:21:52;;;;;;;1.08;0.65;;;;;;;;;;5072748;28;20032;-72
2023/07/08 03:24:18;;;;;;;0.22;0.22;;;;;;;;;;5090640;28;20097;-73
2023/07/08 03:26:45;;;;;;;0.20;0.20;;;;;;;;;;5090876;28;20059;-72
2023/07/08 03:29:14;;;;;;;0.70;0.70;;;;;;;;;;5089576;28;20028;-72
2023/07/08 03:31:40;;;;;;;0.10;0.10;;;;;;;;;;5071272;28;20147;-72
2023/07/08 03:34:09;;;;;;;0.20;0.20;;;;;;;;;;5072692;28;20114;-71
2023/07/08 03:36:48;;;;;;;0.20;0.20;;;;;;;;;;5072527;28;20077;-71
2023/07/08 03:39:17;;;;;;;0.20;0.20;;;;;;;;;;5072539;28;20034;-72
2023/07/08 03:41:43;;;;;;;;;;;;;;;;;;5072517;28;20491;-72
2023/07/08 03:44:09;;;;;;;0.20;0.20;;;;;;;;;;5072270;28;20286;-71
2023/07/08 03:46:35;;;;;;;0.20;0.20;;;;;;;;;;5071540;28;20034;-71
2023/07/08 03:49:01;;;;;;;0.20;0.20;;;;;;;;;;5090345;28;20040;-72
2023/07/08 03:51:29;;;;;;;0.20;0.20;;;;;;;;;;5072207;28;20028;-72
2023/07/08 03:53:54;;;;;;;1.17;0.63;;;;;;;;;;5072459;28;20028;-72
2023/07/08 03:56:21;;;;;;;0.20;0.20;;;;;;;;;;5072240;28;20036;-73
2023/07/08 03:58:47;;;;;;;0.20;0.20;;;;;;;;;;5072494;28;20063;-73
2023/07/08 04:01:20;;;;;;;0.20;0.20;;;;;;;;;;5072068;28;20035;-73
2023/07/08 04:03:46;;;;;;;0.20;0.20;;;;;;;;;;5071591;28;20784;-72
2023/07/08 04:06:12;;;;;;;0.30;0.30;;;;;;;;;;5090240;28;20066;-72
2023/07/08 04:08:38;;;;;;;0.20;0.20;;;;;;;;;;5070551;28;20060;-72
2023/07/08 04:11:03;;;;;;;0.20;0.20;;;;;;;;;;5090128;28;20036;-73
2023/07/08 04:13:28;;;;;;;0.17;0.17;;;;;;;;;;5072051;28;20044;-73
2023/07/08 04:15:56;;;;;;;0.20;0.20;;;;;;;;;;5089975;28;20084;-74
2023/07/08 04:18:21;;;;;;;0.20;0.20;;;;;;;;;;5090114;28;20034;-74
2023/07/08 04:20:52;;;;;;;0.30;0.30;;;;;;;;;;5072206;28;20036;-74
2023/07/08 04:23:18;;;;;;;0.20;0.20;;;;;;;;;;5090124;28;20032;-73
2023/07/08 04:25:43;;;;;;;0.28;0.28;;;;;;;;;;5072177;28;20089;-73
2023/07/08 04:28:08;;;;;;;0.28;0.28;;;;;;;;;;5072633;28;20016;-74
2023/07/08 04:30:40;;;;;;;0.30;0.30;;;;;;;;;;5089624;28;20036;-74
2023/07/08 04:33:07;;;;;;;0.20;0.20;;;;;;;;;;5089865;28;20467;-74
2023/07/08 04:35:33;;;;;;;7.43;5.78;;;;;;;;;;5088623;28;20032;-73
2023/07/08 04:37:59;;;;;;;0.20;0.20;;;;;;;;;;5090124;28;20035;-73
2023/07/08 04:40:25;;;;;;;0.20;0.20;;;;;;;;;;5089682;28;20483;-72
2023/07/08 04:42:52;;;;;;;0.20;0.20;;;;;;;;;;5088063;28;20054;-73
2023/07/08 04:45:17;;;;;;;0.20;0.20;;;;;;;;;;5088518;28;20031;-72
2023/07/08 04:47:46;;;;;;;0.30;0.30;;;;;;;;;;5071412;28;20036;-72
2023/07/08 04:50:12;;;;;;;0.20;0.20;;;;;;;;;;5090262;28;20485;-73
2023/07/08 04:52:37;;;;;;;0.30;0.30;;;;;;;;;;5089575;28;20093;-73
2023/07/08 04:55:03;;;;;;;1.00;1.00;;;;;;;;;;5071355;28;20036;-74
2023/07/08 04:57:28;;;;;;;0.30;0.30;;;;;;;;;;5089555;28;20115;-74
2023/07/08 04:59:54;;;;;;;0.30;0.30;;;;;;;;;;5071662;28;20036;-73
2023/07/08 05:02:19;;;;;;;0.30;0.30;;;;;;;;;;5085813;28;20107;-73
2023/07/08 05:04:45;;;;;;;0.30;0.30;;;;;;;;;;5071571;28;20113;-73
2023/07/08 05:07:10;;;;;;;0.32;0.32;;;;;;;;;;5089399;28;20036;-75
2023/07/08 05:09:36;;;;;;;0.30;0.30;;;;;;;;;;5089275;28;20521;-74
2023/07/08 05:12:01;;;;;;;0.55;0.55;;;;;;;;;;5069930;28;20154;-74
2023/07/08 05:14:27;;;;;;;0.32;0.32;;;;;;;;;;5088364;28;20024;-74
2023/07/08 05:16:52;;;;;;;0.30;0.30;;;;;;;;;;5087518;28;20020;-73
2023/07/08 05:19:18;;;;;;;0.57;0.57;;;;;;;;;;5089534;28;20115;-75
2023/07/08 05:21:45;;;;;;;0.28;0.28;;;;;;;;;;5089573;28;20016;-74
2023/07/08 05:24:10;;;;;;;0.40;0.40;;;;;;;;;;5088964;28;20036;-73
2023/07/08 05:26:35;;;;;;;0.28;0.28;;;;;;;;;;5089561;28;20919;-72
2023/07/08 05:29:01;;;;;;;0.30;0.30;;;;;;;;;;5089317;28;20043;-73
2023/07/08 05:31:27;;;;;;;0.30;0.30;;;;;;;;;;5087563;28;20036;-72
2023/07/08 05:33:53;;;;;;;6.32;3.38;;;;;;;;;;5085388;28;20035;-73
2023/07/08 05:36:18;;;;;;;0.30;0.30;;;;;;;;;;5085626;28;20028;-71
2023/07/08 05:38:44;;;;;;;0.35;0.35;;;;;;;;;;5087011;28;20498;-72
2023/07/08 05:41:09;;;;;;;0.30;0.30;;;;;;;;;;5087074;28;20135;-73
2023/07/08 05:43:35;;;;;;;0.40;0.40;;;;;;;;;;5085464;28;20040;-72
2023/07/08 05:46:01;;;;;;;0.60;0.60;;;;;;;;;;5087558;28;20503;-73
2023/07/08 05:48:26;;;;;;;0.98;0.70;;;;;;;;;;5069163;28;20032;-73
2023/07/08 05:50:51;;;;;;;0.40;0.40;;;;;;;;;;5054437;28;20050;-72
2023/07/08 05:53:18;;;;;;;0.30;0.30;;;;;;;;;;5087803;28;20032;-72
2023/07/08 05:55:45;;;;;;;0.40;0.40;;;;;;;;;;5088040;28;20035;-73
2023/07/08 05:58:10;;;;;;;0.38;0.38;;;;;;;;;;5089901;28;20055;-72
2023/07/08 06:00:36;;;;;;;1.48;1.33;;;;;;;;;;5087075;28;20056;-74
2023/07/08 06:03:02;;;;;;;0.30;0.30;;;;;;;;;;5087856;28;20044;-75
2023/07/08 06:05:27;;;;;;;0.30;0.30;;;;;;;;;;5071180;28;20035;-75
2023/07/08 06:07:52;;;;;;;0.20;0.20;;;;;;;;;;5088568;28;20039;-76
2023/07/08 06:10:18;;;;;;;0.40;0.40;;;;;;;;;;5088593;28;20029;-76
2023/07/08 06:12:44;;;;;;;0.30;0.30;;;;;;;;;;5089235;28;20028;-75
2023/07/08 06:15:12;;;;;;;0.40;0.40;;;;;;;;;;5087319;28;20020;-75
2023/07/08 06:17:37;;;;;;;0.50;0.50;;;;;;;;;;5068133;28;20037;-75
2023/07/08 06:20:02;;;;;;;0.20;0.20;;;;;;;;;;5068383;28;20482;-75
2023/07/08 06:22:28;;;;;;;0.20;0.20;;;;;;;;;;5069980;28;20041;-74
2023/07/08 06:24:53;;;;;;;0.40;0.40;;;;;;;;;;5088389;28;20471;-75
2023/07/08 06:27:19;;;;;;;0.38;0.38;;;;;;;;;;5087094;28;20032;-73
2023/07/08 06:29:44;;;;;;;0.68;0.68;;;;;;;;;;5088326;28;20032;-73
2023/07/08 06:32:10;;;;;;;0.40;0.40;;;;;;;;;;5088348;28;20475;-73
2023/07/08 06:34:35;;;;;;;0.28;0.28;;;;;;;;;;5088222;28;20479;-73
2023/07/08 06:37:00;;;;;;;0.35;0.35;;;;;;;;;;5088953;28;20028;-73
2023/07/08 06:39:26;;;;;;;0.40;0.40;;;;;;;;;;5088004;28;20360;-73
2023/07/08 06:41:51;;;;;;;0.30;0.30;;;;;;;;;;5087980;28;20058;-73
2023/07/08 06:44:21;;;;;;;0.40;0.40;;;;;;;;;;5068971;28;20042;-73
2023/07/08 06:46:47;;;;;;;0.47;0.47;;;;;;;;;;5082008;28;20040;-74
2023/07/08 06:49:12;;;;;;;0.65;0.65;;;;;;;;;;5069386;28;20040;-73
2023/07/08 06:51:38;;;;;;;0.50;0.50;;;;;;;;;;5081181;28;20040;-74
2023/07/08 06:54:10;;;;;;;0.30;0.30;;;;;;;;;;5088132;28;20031;-73
2023/07/08 06:56:37;;;;;;;0.30;0.30;;;;;;;;;;5070290;28;20122;-74
2023/07/08 06:59:02;;;;;;;0.40;0.40;;;;;;;;;;5087822;28;20028;-74
2023/07/08 07:01:27;;;;;;;1.00;1.00;;;;;;;;;;5087784;28;20491;-73
2023/07/08 07:03:53;;;;;;;0.30;0.30;;;;;;;;;;5087852;28;20032;-73
2023/07/08 07:06:18;;;;;;;0.40;0.40;;;;;;;;;;5090978;28;20115;-73
2023/07/08 07:08:44;;;;;;;0.50;0.50;;;;;;;;;;5091112;28;20039;-74
2023/07/08 07:11:09;;;;;;;1.10;1.00;;;;;;;;;;5073129;28;20036;-75
2023/07/08 07:13:35;;;;;;;0.35;0.35;;;;;;;;;;5091333;28;20036;-74
2023/07/08 07:16:00;;;;;;;0.40;0.40;;;;;;;;;;5090799;28;20047;-74
2023/07/08 07:18:26;;;;;;;2.45;2.30;;;;;;;;;;5090260;28;20498;-73
2023/07/08 07:20:52;;;;;;;0.45;0.45;;;;;;;;;;5069962;28;20058;-74
2023/07/08 07:23:18;;;;;;;0.45;0.45;;;;;;;;;;5088499;28;20039;-74
2023/07/08 07:25:47;;;;;;;0.73;0.73;;;;;;;;;;5087838;28;20032;-74
2023/07/08 07:28:12;;;;;;;;;;;;;;;;;;5050468;28;20037;-74
2023/07/08 07:30:37;;;;;;;0.57;0.57;;;;;;;;;;5081316;28;19922;-73
2023/07/08 07:33:03;;;;;;;0.93;0.85;;;;;;;;;;5072804;28;20025;-73
2023/07/08 07:35:29;;;;;;;0.45;0.45;;;;;;;;;;5072539;28;20074;-74
2023/07/08 07:37:54;;;;;;;0.40;0.40;;;;;;;;;;5087942;28;20471;-72
2023/07/08 07:40:19;;;;;;;1.60;0.63;;;;;;;;;;5079759;28;20025;-76
2023/07/08 07:42:45;;;;;;;1.10;1.05;;;;;;;;;;5071974;28;20048;-74
2023/07/08 07:45:11;;;;;;;2.15;1.88;;;;;;;;;;5081755;28;20040;-74
2023/07/08 07:47:37;;;;;;;0.50;0.50;;;;;;;;;;5090840;28;20036;-73
2023/07/08 07:50:03;;;;;;;0.65;0.65;;;;;;;;;;5090612;28;20036;-75
2023/07/08 07:52:28;;;;;;;0.65;0.65;;;;;;;;;;5090617;28;20388;-74
2023/07/08 07:54:54;;;;;;;0.98;0.98;;;;;;;;;;5090856;28;20023;-74
2023/07/08 07:57:20;;;;;;;2.75;2.53;;;;;;;;;;5090923;28;20170;-75
2023/07/08 07:59:45;;;;;;;0.30;0.30;;;;;;;;;;5091445;28;20616;-74
2023/07/08 08:02:11;;;;;;;0.20;0.20;;;;;;;;;;5072619;28;20032;-74
2023/07/08 08:04:37;;;;;;;0.35;0.35;;;;;;;;;;5090176;28;20020;-74
2023/07/08 08:07:03;;;;;;;0.40;0.40;;;;;;;;;;5088152;28;20064;-74
2023/07/08 08:09:28;;;;;;;0.52;0.52;;;;;;;;;;5051748;28;20029;-73
2023/07/08 08:11:54;;;;;;;2.65;2.50;;;;;;;;;;5070256;28;20040;-74
2023/07/08 08:14:20;;;;;;;0.40;0.40;;;;;;;;;;5085801;28;20054;-73
2023/07/08 08:16:45;;;;;;;0.45;0.45;;;;;;;;;;5089626;28;20441;-73
2023/07/08 08:19:11;;;;;;;0.40;0.40;;;;;;;;;;5090299;28;20016;-73
2023/07/08 08:21:36;;;;;;;0.32;0.32;;;;;;;;;;5090010;28;20053;-73
2023/07/08 08:24:01;;;;;;;0.55;0.55;;;;;;;;;;5086708;28;20024;-73
2023/07/08 08:26:27;;;;;;;0.40;0.40;;;;;;;;;;5069633;28;20039;-74
2023/07/08 08:28:52;;;;;;;0.50;0.50;;;;;;;;;;5070073;28;20036;-74
2023/07/08 08:31:18;;;;;;;0.68;0.68;;;;;;;;;;5070428;28;20395;-74
2023/07/08 08:33:43;;;;;;;0.40;0.40;;;;;;;;;;5080486;28;20056;-74
2023/07/08 08:36:09;;;;;;;0.50;0.50;;;;;;;;;;5085507;28;20032;-75
2023/07/08 08:38:35;;;;;;;0.35;0.35;;;;;;;;;;5070745;28;20035;-72
2023/07/08 08:41:20;;;;;;;0.30;0.30;;;;;;;;;;5052656;28;20028;-73
2023/07/08 08:43:47;;;;;;;0.40;0.40;;;;;;;;;;5070621;28;20421;-74
2023/07/08 08:46:23;;;;;;;0.60;0.60;;;;;;;;;;5064595;28;20483;-75
2023/07/08 08:49:08;;;;;;;0.88;0.88;;;;;;;;;;5084085;28;20383;-75
2023/07/08 08:51:34;;;;;;;0.88;0.82;;;;;;;;;;5088151;28;20025;-74
2023/07/08 08:54:00;;;;;;;2.38;2.25;;;;;;;;;;5087985;28;20285;-76
2023/07/08 08:56:30;;;;;;;0.50;0.50;;;;;;;;;;5088605;28;20105;-73
2023/07/08 08:59:14;;;;;;;0.40;0.40;;;;;;;;;;5090008;28;20039;-75
2023/07/08 09:01:40;;;;;;;0.50;0.50;;;;;;;;;;5089111;28;20040;-74
2023/07/08 09:04:07;;;;;;;0.50;0.50;;;;;;;;;;5088911;28;20036;-73
2023/07/08 09:06:34;;;;;;;0.93;0.93;;;;;;;;;;5088932;28;20483;-74
2023/07/08 09:09:16;;;;;;;1.20;1.10;;;;;;;;;;5089436;28;20507;-74
2023/07/08 09:11:56;;;;;;;7.20;6.53;;;;;;;;;;5089754;28;20030;-73
2023/07/08 09:14:26;;;;;;;3.92;2.97;;;;;;;;;;5068682;28;20291;-77
2023/07/08 09:16:54;;;;;;;0.40;0.40;;;;;;;;;;5087075;28;20491;-73
2023/07/08 09:19:30;;;;;;;0.40;0.40;;;;;;;;;;5087594;28;20407;-73
2023/07/08 09:21:55;;;;;;;0.40;0.40;;;;;;;;;;5088016;28;20081;-72
2023/07/08 09:24:41;;;;;;;0.40;0.40;;;;;;;;;;5087965;28;20036;-73
2023/07/08 09:27:06;;;;;;;0.40;0.40;;;;;;;;;;5087341;28;20060;-74
2023/07/08 09:29:32;;;;;;;0.40;0.40;;;;;;;;;;5087907;28;20063;-73
2023/07/08 09:31:58;;;;;;;0.40;0.40;;;;;;;;;;5089005;28;20478;-74
2023/07/08 09:34:35;;;;;;;1.13;1.13;;;;;;;;;;5088547;28;20036;-74
2023/07/08 09:37:00;;;;;;;1.05;1.00;;;;;;;;;;5089125;28;20078;-74
2023/07/08 09:39:26;;;;;;;0.50;0.50;;;;;;;;;;5071277;28;20426;-74
2023/07/08 09:41:52;;;;;;;0.40;0.40;;;;;;;;;;5088782;28;20028;-75
2023/07/08 09:44:17;;;;;;;0.40;0.40;;;;;;;;;;5088194;28;20047;-74
2023/07/08 09:46:43;;;;;;;0.82;0.82;;;;;;;;;;5088837;28;20325;-75
2023/07/08 09:49:19;;;;;;;0.40;0.40;;;;;;;;;;5088632;28;20050;-75
2023/07/08 09:51:45;;;;;;;0.60;0.60;;;;;;;;;;5088825;28;20111;-75
2023/07/08 09:54:11;;;;;;;1.70;1.60;;;;;;;;;;5088975;28;20408;-74
2023/07/08 09:56:39;;;;;;;0.45;0.45;;;;;;;;;;5088616;28;20039;-74
2023/07/08 09:59:04;;;;;;;0.65;0.65;;;;;;;;;;5088745;28;20058;-74
2023/07/08 10:01:29;;;;;;;0.90;0.85;;;;;;;;;;5088778;28;20028;-75
2023/07/08 10:03:59;;;;;;;0.40;0.40;;;;;;;;;;5070036;28;20123;-75
2023/07/08 10:06:25;;;;;;;0.85;0.85;;;;;;;;;;5088546;28;20086;-74
2023/07/08 10:08:53;;;;;;;0.60;0.60;;;;;;;;;;5088532;28;20040;-73
2023/07/08 10:11:18;;;;;;;0.95;0.95;;;;;;;;;;5070163;28;20036;-75
2023/07/08 10:13:45;;;;;;;0.57;0.57;;;;;;;;;;5088588;28;20032;-75
2023/07/08 10:16:16;;;;;;;0.40;0.40;;;;;;;;;;5088320;28;20761;-73
2023/07/08 10:18:42;;;;;;;0.50;0.50;;;;;;;;;;5088695;28;20032;-75
2023/07/08 10:21:37;;;;;;;0.57;0.57;;;;;;;;;;5070258;28;20036;-74
2023/07/08 10:24:20;;;;;;;0.50;0.50;;;;;;;;;;5049194;28;20127;-74
2023/07/08 10:26:47;;;;;;;0.85;0.85;;;;;;;;;;5088457;28;20044;-74
2023/07/08 10:29:51;;;;;;;0.60;0.60;;;;;;;;;;5088384;28;20490;-73
2023/07/08 10:32:36;;;;;;;19.98;4.18;;;;;;;;;;4986473;28;20045;-73
2023/07/08 10:35:08;;;;;;;0.40;0.40;;;;;;;;;;4986410;28;20125;-74
2023/07/08 10:37:34;;;;;;;0.88;0.88;;;;;;;;;;5051911;28;20052;-74
2023/07/08 10:40:02;;;;;;;1.57;1.47;;;;;;;;;;5089372;28;20020;-74
2023/07/08 10:42:28;;;;;;;;;;;;;;;;;;5091928;28;20286;-73
2023/07/08 10:45:25;;;;;;;0.50;0.50;;;;;;;;;;5091807;28;20411;-73
2023/07/08 10:47:54;;;;;;;0.47;0.47;;;;;;;;;;5035955;28;20348;-73
2023/07/08 10:50:19;;;;;;;;;;;;;;;;;;5091509;28;20471;-73
2023/07/08 10:53:04;;;;;;;2.00;0.77;;;;;;;;;;5091744;28;20308;-74
2023/07/08 10:55:39;;;;;;;4.50;1.67;;;;;;;;;;5091645;28;20031;-74
2023/07/08 10:58:34;;;;;;;0.82;0.82;;;;;;;;;;5091688;28;20082;-79
2023/07/08 11:01:07;;;;;;;0.88;0.88;;;;;;;;;;5069560;28;20128;-76
2023/07/08 11:03:56;;;;;;;0.50;0.50;;;;;;;;;;5073390;28;20036;-75
2023/07/08 11:06:34;;;;;;;0.88;0.88;;;;;;;;;;5078267;28;20077;-75
2023/07/08 11:09:02;;;;;;;0.75;0.75;;;;;;;;;;5091289;28;20028;-74
2023/07/08 11:11:39;;;;;;;0.70;0.70;;;;;;;;;;5091123;28;20043;-73
2023/07/08 11:14:23;;;;;;;0.40;0.40;;;;;;;;;;5091319;28;20536;-78
2023/07/08 11:16:51;;;;;;;0.50;0.50;;;;;;;;;;5091350;28;20066;-74
2023/07/08 11:19:31;;;;;;;0.85;0.80;;;;;;;;;;5088656;28;20056;-74
2023/07/08 11:21:59;;;;;;;0.80;0.80;;;;;;;;;;5089497;28;20308;-79
2023/07/08 11:24:28;;;;;;;0.55;0.55;;;;;;;;;;5088797;28;20036;-78
2023/07/08 11:26:57;;;;;;;0.50;0.50;;;;;;;;;;5070757;28;20444;-74
2023/07/08 11:29:27;;;;;;;5.45;1.70;;;;;;;;;;5089435;28;20420;-76
2023/07/08 11:31:54;;;;;;;0.60;0.60;;;;;;;;;;5088275;28;20032;-74
2023/07/08 11:34:20;;;;;;;0.63;0.60;;;;;;;;;;5070266;28;20039;-74
2023/07/08 11:36:47;;;;;;;1.63;1.52;;;;;;;;;;5090613;28;20035;-74
2023/07/08 11:39:26;;;;;;;6.82;1.88;;;;;;;;;;5087675;28;20024;-73
2023/07/08 11:41:52;;;;;;;0.73;0.73;;;;;;;;;;5087698;28;20028;-73
2023/07/08 11:44:17;;;;;;;0.88;0.82;;;;;;;;;;5088081;28;20036;-74
2023/07/08 11:46:53;;;;;;;2.25;2.05;;;;;;;;;;5084570;28;20153;-75
2023/07/08 11:49:19;;;;;;;0.52;0.52;;;;;;;;;;5088494;28;20381;-74
2023/07/08 11:51:46;;;;;;;1.48;1.35;;;;;;;;;;5085784;28;20023;-74
2023/07/08 11:54:13;;;;;;;0.70;0.70;;;;;;;;;;5070276;28;20035;-78
2023/07/08 11:56:59;;;;;;;4.00;1.27;;;;;;;;;;5088701;28;20032;-77
2023/07/08 11:59:32;;;;;;;0.40;0.40;;;;;;;;;;5088456;28;20028;-76
2023/07/08 12:02:09;;;;;;;0.70;0.70;;;;;;;;;;5087399;28;20035;-74
2023/07/08 12:04:51;;;;;;;0.55;0.55;;;;;;;;;;5078112;28;20546;-78
2023/07/08 12:07:19;;;;;;;1.25;1.15;;;;;;;;;;5070391;28;20032;-77
2023/07/08 12:10:05;;;;;;;2.85;2.45;;;;;;;;;;5070273;28;20460;-73
2023/07/08 12:12:32;;;;;;;0.88;0.50;;;;;;;;;;5082243;28;20028;-73
2023/07/08 12:15:00;;;;;;;1.05;0.95;;;;;;;;;;5090377;28;20028;-74
2023/07/08 12:17:26;;;;;;;1.65;1.55;;;;;;;;;;5090324;28;20024;-75
2023/07/08 12:19:51;;;;;;;1.58;1.17;;;;;;;;;;5090167;28;20066;-76
2023/07/08 12:22:18;;;;;;;2.80;1.25;;;;;;;;;;5089691;28;20383;-75
2023/07/08 12:24:44;;;;;;;1.10;1.10;;;;;;;;;;5089950;28;20486;-74
2023/07/08 12:27:10;;;;;;;0.80;0.80;;;;;;;;;;5101564;28;20076;-77
2023/07/08 12:29:35;;;;;;;1.05;0.93;;;;;;;;;;5090111;28;20111;-73
2023/07/08 12:32:01;;;;;;;2.33;1.42;;;;;;;;;;5088470;28;20020;-73
2023/07/08 12:34:26;;;;;;;1.35;1.13;;;;;;;;;;5085151;28;20067;-74
2023/07/08 12:36:53;;;;;;;2.47;1.23;;;;;;;;;;5083842;28;20444;-73
2023/07/08 12:39:18;;;;;;;1.05;0.95;;;;;;;;;;5088179;28;20032;-75
2023/07/08 12:41:44;;;;;;;14.55;1.95;;;;;;;;;;5089925;28;20368;-75
2023/07/08 12:44:23;;;;;;;0.80;0.80;;;;;;;;;;5080314;28;20048;-78
2023/07/08 12:46:52;;;;;;;0.60;0.60;;;;;;;;;;5083706;28;20028;-76
2023/07/08 12:49:19;;;;;;;1.30;1.20;;;;;;;;;;5080699;28;20020;-77
2023/07/08 12:51:45;;;;;;;0.85;0.80;;;;;;;;;;5082113;28;20075;-75
2023/07/08 12:54:11;;;;;;;1.45;1.15;;;;;;;;;;5079571;28;20450;-76
2023/07/08 12:56:37;;;;;;;0.57;0.57;;;;;;;;;;5067154;28;20115;-74
2023/07/08 12:59:03;;;;;;;1.30;1.10;;;;;;;;;;5080905;28;20610;-76
2023/07/08 13:01:30;;;;;;;0.32;0.32;;;;;;;;;;5092740;28;20042;-73
2023/07/08 13:03:58;;;;;;;0.75;0.75;;;;;;;;;;5100330;28;20502;-74
2023/07/08 13:06:25;;;;;;;1.33;1.20;;;;;;;;;;5089415;28;20161;-73
2023/07/08 13:08:51;;;;;;;2.25;1.02;;;;;;;;;;5107687;28;20265;-71
2023/07/08 13:11:18;;;;;;;1.23;1.10;;;;;;;;;;5095180;28;20356;-71
2023/07/08 13:13:49;;;;;;;1.00;0.90;;;;;;;;;;5062841;28;20039;-71
2023/07/08 13:16:15;;;;;;;0.40;0.40;;;;;;;;;;5086974;28;20036;-70
2023/07/08 13:18:41;;;;;;;1.45;1.35;;;;;;;;;;5086663;28;20403;-69
2023/07/08 13:21:08;;;;;;;1.05;0.80;;;;;;;;;;5087017;28;20401;-70
2023/07/08 13:23:34;;;;;;;1.50;1.02;;;;;;;;;;5086924;28;20043;-69
2023/07/08 13:26:00;;;;;;;0.75;0.75;;;;;;;;;;5086886;28;20114;-70
2023/07/08 13:28:27;;;;;;;0.95;0.73;;;;;;;;;;5086875;28;20162;-70
2023/07/08 13:31:02;;;;;;;1.00;0.93;;;;;;;;;;5086119;28;20036;-70
2023/07/08 13:33:32;;;;;;;0.70;0.70;;;;;;;;;;5086029;28;20035;-71
2023/07/08 13:35:58;;;;;;;3.47;1.85;;;;;;;;;;5090213;28;20507;-72
2023/07/08 13:38:26;;;;;;;0.70;0.70;;;;;;;;;;5089375;28;20139;-69
2023/07/08 13:40:57;;;;;;;0.57;0.55;;;;;;;;;;5060056;28;20097;-68
2023/07/08 13:43:24;;;;;;;0.80;0.77;;;;;;;;;;5076579;28;20035;-76
2023/07/08 13:45:49;;;;;;;1.40;1.05;;;;;;;;;;5079497;28;20813;-70
2023/07/08 13:48:20;;;;;;;0.60;0.60;;;;;;;;;;5067089;28;20130;-72
2023/07/08 13:50:52;;;;;;;2.85;0.75;;;;;;;;;;5085484;28;20047;-71
2023/07/08 13:53:19;;;;;;;0.70;0.63;;;;;;;;;;5083278;28;20036;-70
2023/07/08 13:55:45;;;;;;;2.92;1.67;;;;;;;;;;5084587;28;20189;-70
2023/07/08 13:58:14;;;;;;;1.40;0.90;;;;;;;;;;5085615;28;20402;-72
2023/07/08 14:00:40;;;;;;;2.28;1.13;;;;;;;;;;5084929;28;20031;-71
2023/07/08 14:03:07;;;;;;;1.55;1.33;;;;;;;;;;5084126;28;20563;-72
2023/07/08 14:05:33;;;;;;;0.57;0.57;;;;;;;;;;5082880;28;20024;-74
2023/07/08 14:08:01;;;;;;;1.55;1.45;;;;;;;;;;5085212;28;20028;-68
2023/07/08 14:10:26;;;;;;;1.50;0.98;;;;;;;;;;5064788;28;20032;-66
2023/07/08 14:12:52;;;;;;;1.33;1.23;;;;;;;;;;5087969;28;20040;-67
2023/07/08 14:15:17;;;;;;;1.42;1.15;;;;;;;;;;5088319;28;20042;-66
2023/07/08 14:17:43;;;;;;;1.08;0.90;;;;;;;;;;5073540;28;20043;-67
2023/07/08 14:20:14;;;;;;;0.82;0.82;;;;;;;;;;5073704;28;20024;-68
2023/07/08 14:22:40;;;;;;;1.42;1.35;;;;;;;;;;5089747;28;20498;-68
2023/07/08 14:25:07;;;;;;;1.02;0.93;;;;;;;;;;5074103;28;20127;-68
2023/07/08 14:27:33;;;;;;;0.52;0.52;;;;;;;;;;5090310;28;20043;-68
2023/07/08 14:29:58;;;;;;;1.45;1.13;;;;;;;;;;5086403;28;20032;-67
2023/07/08 14:32:30;;;;;;;1.52;1.33;;;;;;;;;;5091564;28;20516;-67
2023/07/08 14:34:56;;;;;;;0.80;0.80;;;;;;;;;;5092178;28;20039;-67
2023/07/08 14:37:22;;;;;;;0.77;0.77;;;;;;;;;;5072931;28;20086;-67
2023/07/08 14:39:47;;;;;;;0.50;0.50;;;;;;;;;;5089146;28;20425;-69
2023/07/08 14:42:14;;;;;;;0.40;0.40;;;;;;;;;;5091539;28;20032;-69
2023/07/08 14:44:41;;;;;;;0.47;0.47;;;;;;;;;;5091513;28;20032;-69
2023/07/08 14:47:10;;;;;;;0.52;0.52;;;;;;;;;;5088454;28;20020;-71